Terminal Aerodrome Forecast
Issued by NWS

Home | Current Version | Previous Version | Text Only | Print | Product List | Glossary On
Versions: 1 2 3 4 5 6 7 8 9 10 11 12 13 14 15 16 17 18 19 20 21 22 23 24 25 26 27 28 29 30 31 32 33 34 35 36
769
FTUS45 KSLC 281321 AAB
TAFLGU
TAF AMD
KLGU 281321Z 2813/2912 VRB05KT P6SM SCT050 SCT120
     FM290400 16007KT P6SM SCT100
     FM290800 VRB05KT P6SM SCT080 SCT120=

USA.gov is the U.S. government's official web portal to all federal, state and local government web resources and services.